sensor_id;sensor_type;location;lat;lon;timestamp;pressure;altitude;pressure_sealevel;temperature;humidity
8416;BME280;4245;42.120;24.732;2023-08-06T00:00:37;97910.38;;;26.28;100.00
8416;BME280;4245;42.120;24.732;2023-08-06T00:03:06;97914.03;;;26.33;100.00
8416;BME280;4245;42.120;24.732;2023-08-06T00:05:33;97910.22;;;26.34;100.00
8416;BME280;4245;42.120;24.732;2023-08-06T00:07:59;97906.94;;;26.32;100.00
8416;BME280;4245;42.120;24.732;2023-08-06T00:10:26;97895.56;;;26.24;100.00
8416;BME280;4245;42.120;24.732;2023-08-06T00:12:53;97898.88;;;26.26;100.00
8416;BME280;4245;42.120;24.732;2023-08-06T00:15:20;97891.22;;;26.23;100.00
8416;BME280;4245;42.120;24.732;2023-08-06T00:17:47;97894.88;;;26.28;100.00
8416;BME280;4245;42.120;24.732;2023-08-06T00:20:15;97895.88;;;26.39;100.00
8416;BME280;4245;42.120;24.732;2023-08-06T00:22:42;97893.88;;;26.34;100.00
8416;BME280;4245;42.120;24.732;2023-08-06T00:25:09;97890.59;;;26.32;100.00
8416;BME280;4245;42.120;24.732;2023-08-06T00:27:36;97887.47;;;26.41;100.00
8416;BME280;4245;42.120;24.732;2023-08-06T00:30:04;97895.66;;;26.41;100.00
8416;BME280;4245;42.120;24.732;2023-08-06T00:32:31;97901.31;;;26.39;100.00
8416;BME280;4245;42.120;24.732;2023-08-06T00:34:58;97909.66;;;26.32;100.00
8416;BME280;4245;42.120;24.732;2023-08-06T00:37:26;97900.50;;;26.38;100.00
8416;BME280;4245;42.120;24.732;2023-08-06T00:39:53;97902.03;;;26.46;100.00
8416;BME280;4245;42.120;24.732;2023-08-06T00:42:20;97892.59;;;26.37;100.00
8416;BME280;4245;42.120;24.732;2023-08-06T00:44:48;97897.31;;;26.42;100.00
8416;BME280;4245;42.120;24.732;2023-08-06T00:47:15;97895.44;;;26.30;100.00
8416;BME280;4245;42.120;24.732;2023-08-06T00:49:42;97890.38;;;26.22;100.00
8416;BME280;4245;42.120;24.732;2023-08-06T00:52:09;97887.03;;;26.20;100.00
8416;BME280;4245;42.120;24.732;2023-08-06T00:54:40;97881.84;;;26.19;100.00
8416;BME280;4245;42.120;24.732;2023-08-06T00:57:07;97868.03;;;26.09;100.00
8416;BME280;4245;42.120;24.732;2023-08-06T00:59:36;97858.66;;;26.05;100.00
8416;BME280;4245;42.120;24.732;2023-08-06T01:02:03;97856.44;;;26.02;100.00
8416;BME280;4245;42.120;24.732;2023-08-06T01:04:30;97861.66;;;26.03;100.00
8416;BME280;4245;42.120;24.732;2023-08-06T01:07:06;97852.31;;;25.99;100.00
8416;BME280;4245;42.120;24.732;2023-08-06T01:09:45;97854.56;;;26.02;100.00
8416;BME280;4245;42.120;24.732;2023-08-06T01:12:22;97860.38;;;25.94;100.00
8416;BME280;4245;42.120;24.732;2023-08-06T01:14:57;97862.53;;;25.69;100.00
8416;BME280;4245;42.120;24.732;2023-08-06T01:17:26;97865.16;;;25.64;100.00
8416;BME280;4245;42.120;24.732;2023-08-06T01:19:53;97865.75;;;25.66;100.00
8416;BME280;4245;42.120;24.732;2023-08-06T01:22:22;97868.88;;;25.86;100.00
8416;BME280;4245;42.120;24.732;2023-08-06T01:24:50;97867.72;;;25.82;100.00
8416;BME280;4245;42.120;24.732;2023-08-06T01:27:21;97887.84;;;25.69;100.00
8416;BME280;4245;42.120;24.732;2023-08-06T01:29:57;97882.28;;;25.41;100.00
8416;BME280;4245;42.120;24.732;2023-08-06T01:32:31;97874.81;;;25.36;100.00
8416;BME280;4245;42.120;24.732;2023-08-06T01:35:01;97866.91;;;25.58;100.00
8416;BME280;4245;42.120;24.732;2023-08-06T01:37:31;97858.75;;;25.58;100.00
8416;BME280;4245;42.120;24.732;2023-08-06T01:39:58;97853.78;;;25.67;100.00
8416;BME280;4245;42.120;24.732;2023-08-06T01:42:25;97844.19;;;25.76;100.00
8416;BME280;4245;42.120;24.732;2023-08-06T01:44:52;97838.28;;;25.67;100.00
8416;BME280;4245;42.120;24.732;2023-08-06T01:47:19;97834.50;;;25.68;100.00
8416;BME280;4245;42.120;24.732;2023-08-06T01:49:46;97828.97;;;25.63;100.00
8416;BME280;4245;42.120;24.732;2023-08-06T01:52:13;97829.06;;;25.57;100.00
8416;BME280;4245;42.120;24.732;2023-08-06T01:54:41;97844.94;;;25.60;100.00
8416;BME280;4245;42.120;24.732;2023-08-06T01:57:08;97850.22;;;25.66;100.00
8416;BME280;4245;42.120;24.732;2023-08-06T01:59:35;97851.91;;;25.56;100.00
8416;BME280;4245;42.120;24.732;2023-08-06T02:02:02;97870.69;;;25.69;100.00
8416;BME280;4245;42.120;24.732;2023-08-06T02:04:29;97879.81;;;25.63;100.00
8416;BME280;4245;42.120;24.732;2023-08-06T02:06:56;97882.41;;;25.58;100.00
8416;BME280;4245;42.120;24.732;2023-08-06T02:09:23;97860.03;;;25.44;100.00
8416;BME280;4245;42.120;24.732;2023-08-06T02:11:51;97852.00;;;25.49;100.00
8416;BME280;4245;42.120;24.732;2023-08-06T02:14:18;97863.22;;;25.52;100.00
8416;BME280;4245;42.120;24.732;2023-08-06T02:16:45;97864.03;;;25.53;100.00
8416;BME280;4245;42.120;24.732;2023-08-06T02:19:12;97853.28;;;25.46;100.00
8416;BME280;4245;42.120;24.732;2023-08-06T02:21:39;97850.44;;;25.53;100.00
8416;BME280;4245;42.120;24.732;2023-08-06T02:24:05;97856.84;;;25.47;100.00
8416;BME280;4245;42.120;24.732;2023-08-06T02:26:32;97851.28;;;25.42;100.00
8416;BME280;4245;42.120;24.732;2023-08-06T02:29:01;97841.13;;;25.49;100.00
8416;BME280;4245;42.120;24.732;2023-08-06T02:31:27;97839.94;;;25.57;100.00
8416;BME280;4245;42.120;24.732;2023-08-06T02:33:54;97842.09;;;25.55;100.00
8416;BME280;4245;42.120;24.732;2023-08-06T02:36:22;97851.28;;;25.53;100.00
8416;BME280;4245;42.120;24.732;2023-08-06T02:38:49;97841.72;;;25.51;100.00
8416;BME280;4245;42.120;24.732;2023-08-06T02:41:16;97841.13;;;25.49;100.00
8416;BME280;4245;42.120;24.732;2023-08-06T02:43:43;97841.13;;;25.49;100.00
8416;BME280;4245;42.120;24.732;2023-08-06T02:46:12;97837.69;;;25.42;100.00
8416;BME280;4245;42.120;24.732;2023-08-06T02:48:38;97844.78;;;25.43;100.00
8416;BME280;4245;42.120;24.732;2023-08-06T02:51:05;97846.94;;;25.41;100.00
8416;BME280;4245;42.120;24.732;2023-08-06T02:53:32;97844.56;;;25.44;100.00
8416;BME280;4245;42.120;24.732;2023-08-06T02:55:58;97843.13;;;25.42;100.00
8416;BME280;4245;42.120;24.732;2023-08-06T02:58:25;97836.16;;;25.34;100.00
8416;BME280;4245;42.120;24.732;2023-08-06T03:01:02;97826.13;;;25.35;100.00
8416;BME280;4245;42.120;24.732;2023-08-06T03:03:31;97834.50;;;25.33;100.00
8416;BME280;4245;42.120;24.732;2023-08-06T03:05:58;97835.94;;;25.24;100.00
8416;BME280;4245;42.120;24.732;2023-08-06T03:08:24;97839.59;;;25.06;100.00
8416;BME280;4245;42.120;24.732;2023-08-06T03:10:51;97837.81;;;25.00;100.00
8416;BME280;4245;42.120;24.732;2023-08-06T03:13:19;97837.44;;;25.08;100.00
8416;BME280;4245;42.120;24.732;2023-08-06T03:15:52;97834.03;;;25.13;100.00
8416;BME280;4245;42.120;24.732;2023-08-06T03:18:19;97824.94;;;25.07;100.00
8416;BME280;4245;42.120;24.732;2023-08-06T03:20:48;97836.38;;;25.09;100.00
8416;BME280;4245;42.120;24.732;2023-08-06T03:23:15;97825.03;;;25.13;100.00
8416;BME280;4245;42.120;24.732;2023-08-06T03:25:42;97836.38;;;25.09;100.00
8416;BME280;4245;42.120;24.732;2023-08-06T03:28:09;97843.47;;;24.99;100.00
8416;BME280;4245;42.120;24.732;2023-08-06T03:30:36;97847.13;;;24.93;100.00
8416;BME280;4245;42.120;24.732;2023-08-06T03:33:03;97849.72;;;24.99;100.00
8416;BME280;4245;42.120;24.732;2023-08-06T03:35:30;97856.56;;;24.90;100.00
8416;BME280;4245;42.120;24.732;2023-08-06T03:37:58;97849.31;;;24.84;100.00
8416;BME280;4245;42.120;24.732;2023-08-06T03:40:25;97841.03;;;24.79;100.00
8416;BME280;4245;42.120;24.732;2023-08-06T03:42:52;97840.59;;;24.82;100.00
8416;BME280;4245;42.120;24.732;2023-08-06T03:45:19;97849.50;;;25.01;100.00
8416;BME280;4245;42.120;24.732;2023-08-06T03:47:45;97840.50;;;25.00;100.00
8416;BME280;4245;42.120;24.732;2023-08-06T03:50:12;97842.63;;;24.98;100.00
8416;BME280;4245;42.120;24.732;2023-08-06T03:52:39;97844.41;;;25.04;100.00
8416;BME280;4245;42.120;24.732;2023-08-06T03:55:09;97845.94;;;25.00;100.00
8416;BME280;4245;42.120;24.732;2023-08-06T03:57:36;97845.59;;;25.08;100.00
8416;BME280;4245;42.120;24.732;2023-08-06T04:00:03;97858.34;;;25.08;100.00
8416;BME280;4245;42.120;24.732;2023-08-06T04:02:30;97857.28;;;24.97;100.00
8416;BME280;4245;42.120;24.732;2023-08-06T04:04:57;97859.88;;;25.04;100.00
8416;BME280;4245;42.120;24.732;2023-08-06T04:07:24;97860.63;;;25.11;100.00
8416;BME280;4245;42.120;24.732;2023-08-06T04:09:55;97854.47;;;25.16;100.00
8416;BME280;4245;42.120;24.732;2023-08-06T04:12:23;97855.75;;;25.01;100.00
8416;BME280;4245;42.120;24.732;2023-08-06T04:14:51;97852.81;;;25.15;100.00
8416;BME280;4245;42.120;24.732;2023-08-06T04:17:18;97853.28;;;25.12;100.00
8416;BME280;4245;42.120;24.732;2023-08-06T04:19:48;97858.84;;;25.17;100.00
8416;BME280;4245;42.120;24.732;2023-08-06T04:22:15;97865.53;;;24.91;100.00
8416;BME280;4245;42.120;24.732;2023-08-06T04:24:42;97872.34;;;24.82;100.00
8416;BME280;4245;42.120;24.732;2023-08-06T04:27:09;97877.41;;;24.78;100.00
8416;BME280;4245;42.120;24.732;2023-08-06T04:29:38;97877.59;;;24.95;100.00
8416;BME280;4245;42.120;24.732;2023-08-06T04:32:06;97878.31;;;25.14;100.00
8416;BME280;4245;42.120;24.732;2023-08-06T04:34:34;97872.75;;;25.08;100.00
8416;BME280;4245;42.120;24.732;2023-08-06T04:37:01;97886.72;;;25.12;100.00
8416;BME280;4245;42.120;24.732;2023-08-06T04:39:29;97876.78;;;25.06;100.00
8416;BME280;4245;42.120;24.732;2023-08-06T04:41:56;97869.50;;;25.30;100.00
8416;BME280;4245;42.120;24.732;2023-08-06T04:44:23;97859.31;;;25.37;100.00
8416;BME280;4245;42.120;24.732;2023-08-06T04:46:52;97862.28;;;25.47;100.00
8416;BME280;4245;42.120;24.732;2023-08-06T04:49:20;97858.19;;;25.56;100.00
8416;BME280;4245;42.120;24.732;2023-08-06T04:51:47;97864.28;;;25.51;100.00
8416;BME280;4245;42.120;24.732;2023-08-06T04:54:14;97871.84;;;25.38;100.00
8416;BME280;4245;42.120;24.732;2023-08-06T04:56:41;97864.19;;;25.35;100.00
8416;BME280;4245;42.120;24.732;2023-08-06T04:59:08;97864.41;;;25.33;100.00
8416;BME280;4245;42.120;24.732;2023-08-06T05:01:34;97869.00;;;25.33;100.00
8416;BME280;4245;42.120;24.732;2023-08-06T05:04:03;97882.63;;;25.44;100.00
8416;BME280;4245;42.120;24.732;2023-08-06T05:06:30;97893.56;;;25.15;100.00
8416;BME280;4245;42.120;24.732;2023-08-06T05:08:57;97878.66;;;24.94;100.00
8416;BME280;4245;42.120;24.732;2023-08-06T05:11:24;97868.50;;;25.01;100.00
8416;BME280;4245;42.120;24.732;2023-08-06T05:13:51;97874.16;;;24.99;100.00
8416;BME280;4245;42.120;24.732;2023-08-06T05:16:18;97879.38;;;25.01;100.00
8416;BME280;4245;42.120;24.732;2023-08-06T05:18:44;97876.88;;;24.99;100.00
8416;BME280;4245;42.120;24.732;2023-08-06T05:21:13;97884.47;;;24.97;100.00
8416;BME280;4245;42.120;24.732;2023-08-06T05:23:41;97895.56;;;24.96;100.00
8416;BME280;4245;42.120;24.732;2023-08-06T05:26:08;97900.25;;;24.59;100.00
8416;BME280;4245;42.120;24.732;2023-08-06T05:28:35;97901.25;;;24.46;100.00
8416;BME280;4245;42.120;24.732;2023-08-06T05:31:05;97877.19;;;24.50;100.00
8416;BME280;4245;42.120;24.732;2023-08-06T05:33:32;97859.56;;;24.41;100.00
8416;BME280;4245;42.120;24.732;2023-08-06T05:35:59;97865.25;;;24.39;100.00
8416;BME280;4245;42.120;24.732;2023-08-06T05:38:29;97882.22;;;24.35;100.00
8416;BME280;4245;42.120;24.732;2023-08-06T05:40:56;97865.31;;;24.14;100.00
8416;BME280;4245;42.120;24.732;2023-08-06T05:43:23;97865.94;;;24.16;100.00
8416;BME280;4245;42.120;24.732;2023-08-06T05:45:50;97867.59;;;24.17;100.00
8416;BME280;4245;42.120;24.732;2023-08-06T05:48:17;97854.25;;;23.98;100.00
8416;BME280;4245;42.120;24.732;2023-08-06T05:50:44;97846.47;;;24.01;100.00
8416;BME280;4245;42.120;24.732;2023-08-06T05:53:11;97848.00;;;23.97;100.00
8416;BME280;4245;42.120;24.732;2023-08-06T05:55:40;97861.84;;;24.07;100.00
8416;BME280;4245;42.120;24.732;2023-08-06T05:58:07;97854.25;;;23.98;100.00
8416;BME280;4245;42.120;24.732;2023-08-06T06:00:33;97842.44;;;23.74;100.00
8416;BME280;4245;42.120;24.732;2023-08-06T06:03:00;97845.81;;;23.88;100.00
8416;BME280;4245;42.120;24.732;2023-08-06T06:05:28;97840.72;;;23.79;100.00
8416;BME280;4245;42.120;24.732;2023-08-06T06:07:55;97844.00;;;24.00;100.00
8416;BME280;4245;42.120;24.732;2023-08-06T06:10:22;97843.31;;;24.22;100.00
8416;BME280;4245;42.120;24.732;2023-08-06T06:12:50;97854.53;;;24.44;100.00
8416;BME280;4245;42.120;24.732;2023-08-06T06:15:17;97850.03;;;24.50;100.00
8416;BME280;4245;42.120;24.732;2023-08-06T06:17:44;97845.84;;;24.36;100.00
8416;BME280;4245;42.120;24.732;2023-08-06T06:20:11;97837.34;;;24.32;100.00
8416;BME280;4245;42.120;24.732;2023-08-06T06:22:38;97835.91;;;24.11;100.00
8416;BME280;4245;42.120;24.732;2023-08-06T06:25:06;97839.34;;;24.25;100.00
8416;BME280;4245;42.120;24.732;2023-08-06T06:27:33;97833.84;;;24.43;100.00
8416;BME280;4245;42.120;24.732;2023-08-06T06:30:01;97841.50;;;24.35;100.00
8416;BME280;4245;42.120;24.732;2023-08-06T06:32:29;97854.66;;;24.49;100.00
8416;BME280;4245;42.120;24.732;2023-08-06T06:34:56;97860.59;;;24.58;100.00
8416;BME280;4245;42.120;24.732;2023-08-06T06:37:24;97863.94;;;24.72;100.00
8416;BME280;4245;42.120;24.732;2023-08-06T06:39:51;97869.22;;;24.66;100.00
8416;BME280;4245;42.120;24.732;2023-08-06T06:42:18;97870.06;;;24.67;100.00
8416;BME280;4245;42.120;24.732;2023-08-06T06:47:21;97861.50;;;24.52;100.00
8416;BME280;4245;42.120;24.732;2023-08-06T06:49:48;97851.59;;;24.99;100.00
8416;BME280;4245;42.120;24.732;2023-08-06T06:52:15;97858.06;;;24.86;100.00
8416;BME280;4245;42.120;24.732;2023-08-06T06:54:42;97855.41;;;24.98;100.00
8416;BME280;4245;42.120;24.732;2023-08-06T06:57:08;97851.75;;;24.92;100.00
8416;BME280;4245;42.120;24.732;2023-08-06T06:59:35;97854.69;;;24.91;100.00
8416;BME280;4245;42.120;24.732;2023-08-06T07:02:04;97860.25;;;25.07;100.00
8416;BME280;4245;42.120;24.732;2023-08-06T07:04:32;97852.72;;;25.21;100.00
8416;BME280;4245;42.120;24.732;2023-08-06T07:06:59;97862.03;;;25.25;100.00
8416;BME280;4245;42.120;24.732;2023-08-06T07:09:26;97873.50;;;25.39;100.00
8416;BME280;4245;42.120;24.732;2023-08-06T07:11:53;97872.97;;;25.60;100.00
8416;BME280;4245;42.120;24.732;2023-08-06T07:14:20;97872.88;;;25.95;100.00
8416;BME280;4245;42.120;24.732;2023-08-06T07:16:46;97886.59;;;26.23;100.00
8416;BME280;4245;42.120;24.732;2023-08-06T07:19:13;97888.00;;;26.54;100.00
8416;BME280;4245;42.120;24.732;2023-08-06T07:21:42;97892.25;;;26.90;100.00
8416;BME280;4245;42.120;24.732;2023-08-06T07:24:09;97899.06;;;27.38;100.00
8416;BME280;4245;42.120;24.732;2023-08-06T07:26:36;97902.94;;;27.75;100.00
8416;BME280;4245;42.120;24.732;2023-08-06T07:29:03;97923.16;;;28.13;100.00
8416;BME280;4245;42.120;24.732;2023-08-06T07:31:29;97922.00;;;27.92;100.00
8416;BME280;4245;42.120;24.732;2023-08-06T07:33:56;97923.25;;;27.84;100.00
8416;BME280;4245;42.120;24.732;2023-08-06T07:36:23;97909.38;;;27.86;99.54
8416;BME280;4245;42.120;24.732;2023-08-06T07:38:51;97900.69;;;28.10;99.52
8416;BME280;4245;42.120;24.732;2023-08-06T07:41:21;97899.91;;;28.75;94.57
8416;BME280;4245;42.120;24.732;2023-08-06T07:43:48;97908.75;;;29.14;89.93
8416;BME280;4245;42.120;24.732;2023-08-06T07:46:15;97892.44;;;28.98;91.14
8416;BME280;4245;42.120;24.732;2023-08-06T07:48:42;97903.63;;;28.47;92.73
8416;BME280;4245;42.120;24.732;2023-08-06T07:51:09;97900.63;;;28.05;92.40
8416;BME280;4245;42.120;24.732;2023-08-06T07:53:35;97898.50;;;27.69;96.21
8416;BME280;4245;42.120;24.732;2023-08-06T07:56:04;97903.84;;;27.47;99.64
8416;BME280;4245;42.120;24.732;2023-08-06T07:58:31;97916.66;;;27.30;99.45
8416;BME280;4245;42.120;24.732;2023-08-06T08:00:58;97929.19;;;26.98;100.00
8416;BME280;4245;42.120;24.732;2023-08-06T08:03:25;97922.97;;;26.46;100.00
8416;BME280;4245;42.120;24.732;2023-08-06T08:05:54;97939.75;;;26.03;100.00
8416;BME280;4245;42.120;24.732;2023-08-06T08:08:23;97924.09;;;25.40;100.00
8416;BME280;4245;42.120;24.732;2023-08-06T08:10:49;97909.91;;;25.38;100.00
8416;BME280;4245;42.120;24.732;2023-08-06T08:13:18;97921.38;;;25.40;100.00
8416;BME280;4245;42.120;24.732;2023-08-06T08:15:46;97928.00;;;25.44;100.00
8416;BME280;4245;42.120;24.732;2023-08-06T08:18:13;97928.94;;;25.26;100.00
8416;BME280;4245;42.120;24.732;2023-08-06T08:20:40;97923.13;;;25.11;100.00
8416;BME280;4245;42.120;24.732;2023-08-06T08:23:06;97917.50;;;24.94;100.00
8416;BME280;4245;42.120;24.732;2023-08-06T08:25:33;97917.41;;;25.01;100.00
8416;BME280;4245;42.120;24.732;2023-08-06T08:28:00;97920.47;;;24.93;100.00
8416;BME280;4245;42.120;24.732;2023-08-06T08:30:29;97925.34;;;24.84;100.00
8416;BME280;4245;42.120;24.732;2023-08-06T08:32:55;97922.09;;;24.94;100.00
8416;BME280;4245;42.120;24.732;2023-08-06T08:35:22;97920.84;;;24.96;100.00
8416;BME280;4245;42.120;24.732;2023-08-06T08:37:49;97907.25;;;24.96;100.00
8416;BME280;4245;42.120;24.732;2023-08-06T08:40:17;97909.34;;;24.94;100.00
8416;BME280;4245;42.120;24.732;2023-08-06T08:42:44;97902.16;;;24.88;100.00
8416;BME280;4245;42.120;24.732;2023-08-06T08:45:14;97901.31;;;24.88;100.00
8416;BME280;4245;42.120;24.732;2023-08-06T08:47:42;97914.47;;;25.02;100.00
8416;BME280;4245;42.120;24.732;2023-08-06T08:50:10;97913.16;;;25.05;100.00
8416;BME280;4245;42.120;24.732;2023-08-06T08:52:39;97913.34;;;25.22;100.00
8416;BME280;4245;42.120;24.732;2023-08-06T08:55:07;97913.25;;;25.63;100.00
8416;BME280;4245;42.120;24.732;2023-08-06T08:57:35;97906.03;;;25.92;100.00
8416;BME280;4245;42.120;24.732;2023-08-06T09:00:03;97905.25;;;26.31;100.00
8416;BME280;4245;42.120;24.732;2023-08-06T09:02:30;97904.72;;;26.86;100.00
8416;BME280;4245;42.120;24.732;2023-08-06T09:05:01;97891.38;;;27.68;100.00
8416;BME280;4245;42.120;24.732;2023-08-06T09:07:32;97897.03;;;28.65;92.66
8416;BME280;4245;42.120;24.732;2023-08-06T09:10:02;97895.34;;;29.45;84.00
8416;BME280;4245;42.120;24.732;2023-08-06T09:12:30;97887.91;;;30.19;80.75
8416;BME280;4245;42.120;24.732;2023-08-06T09:14:58;97888.69;;;30.92;72.81
8416;BME280;4245;42.120;24.732;2023-08-06T09:17:25;97873.91;;;31.54;70.09
8416;BME280;4245;42.120;24.732;2023-08-06T09:19:53;97874.34;;;32.21;67.03
8416;BME280;4245;42.120;24.732;2023-08-06T09:22:22;97885.66;;;33.18;59.23
8416;BME280;4245;42.120;24.732;2023-08-06T09:24:49;97877.13;;;33.19;58.94
8416;BME280;4245;42.120;24.732;2023-08-06T09:27:16;97875.94;;;32.92;60.48
8416;BME280;4245;42.120;24.732;2023-08-06T09:29:44;97871.97;;;33.42;56.98
8416;BME280;4245;42.120;24.732;2023-08-06T09:32:11;97870.03;;;34.00;54.04
8416;BME280;4245;42.120;24.732;2023-08-06T09:34:39;97891.41;;;34.79;50.70
8416;BME280;4245;42.120;24.732;2023-08-06T09:37:08;97882.38;;;35.30;43.83
8416;BME280;4245;42.120;24.732;2023-08-06T09:39:39;97881.38;;;34.65;45.29
8416;BME280;4245;42.120;24.732;2023-08-06T09:42:06;97886.44;;;34.10;48.29
8416;BME280;4245;42.120;24.732;2023-08-06T09:44:33;97882.59;;;34.11;49.34
8416;BME280;4245;42.120;24.732;2023-08-06T09:47:02;97878.88;;;33.39;49.54
8416;BME280;4245;42.120;24.732;2023-08-06T09:49:41;97875.03;;;33.40;47.01
8416;BME280;4245;42.120;24.732;2023-08-06T09:52:10;97867.59;;;33.70;45.29
8416;BME280;4245;42.120;24.732;2023-08-06T09:54:39;97860.06;;;33.80;42.88
8416;BME280;4245;42.120;24.732;2023-08-06T09:57:06;97865.91;;;34.26;42.56
8416;BME280;4245;42.120;24.732;2023-08-06T09:59:34;97875.56;;;34.24;41.88
8416;BME280;4245;42.120;24.732;2023-08-06T10:02:02;97874.13;;;34.50;41.65
8416;BME280;4245;42.120;24.732;2023-08-06T10:04:34;97870.00;;;35.27;40.79
8416;BME280;4245;42.120;24.732;2023-08-06T10:07:02;97866.41;;;36.05;38.14
8416;BME280;4245;42.120;24.732;2023-08-06T10:09:28;97858.59;;;36.07;35.57
8416;BME280;4245;42.120;24.732;2023-08-06T10:11:58;97854.72;;;36.49;35.97
8416;BME280;4245;42.120;24.732;2023-08-06T10:14:28;97857.66;;;37.16;34.60
8416;BME280;4245;42.120;24.732;2023-08-06T10:16:57;97854.59;;;36.68;34.63
8416;BME280;4245;42.120;24.732;2023-08-06T10:19:25;97853.09;;;36.35;34.21
8416;BME280;4245;42.120;24.732;2023-08-06T10:22:09;97850.19;;;36.12;34.70
8416;BME280;4245;42.120;24.732;2023-08-06T10:24:47;97845.50;;;35.99;35.49
8416;BME280;4245;42.120;24.732;2023-08-06T10:27:19;97844.22;;;35.18;37.05
8416;BME280;4245;42.120;24.732;2023-08-06T10:29:47;97833.78;;;35.10;37.60
8416;BME280;4245;42.120;24.732;2023-08-06T10:32:15;97839.72;;;35.68;36.99
8416;BME280;4245;42.120;24.732;2023-08-06T10:34:56;97841.31;;;36.43;34.46
8416;BME280;4245;42.120;24.732;2023-08-06T10:37:24;97846.63;;;36.53;33.90
8416;BME280;4245;42.120;24.732;2023-08-06T10:39:51;97851.84;;;36.00;34.58
8416;BME280;4245;42.120;24.732;2023-08-06T10:42:27;97849.00;;;35.91;35.12
8416;BME280;4245;42.120;24.732;2023-08-06T10:45:17;97850.19;;;36.67;33.94
8416;BME280;4245;42.120;24.732;2023-08-06T10:47:45;97852.59;;;37.40;32.66
8416;BME280;4245;42.120;24.732;2023-08-06T10:50:12;97846.06;;;37.36;31.57
8416;BME280;4245;42.120;24.732;2023-08-06T10:52:42;97850.31;;;35.94;33.17
8416;BME280;4245;42.120;24.732;2023-08-06T10:55:09;97866.22;;;35.05;34.30
8416;BME280;4245;42.120;24.732;2023-08-06T10:57:37;97866.34;;;34.95;35.43
8416;BME280;4245;42.120;24.732;2023-08-06T11:00:06;97859.16;;;35.12;34.35
8416;BME280;4245;42.120;24.732;2023-08-06T11:02:34;97866.16;;;34.48;35.19
8416;BME280;4245;42.120;24.732;2023-08-06T11:05:08;97852.19;;;34.21;35.91
8416;BME280;4245;42.120;24.732;2023-08-06T11:07:35;97848.81;;;35.04;35.26
8416;BME280;4245;42.120;24.732;2023-08-06T11:10:03;97851.66;;;35.96;33.97
8416;BME280;4245;42.120;24.732;2023-08-06T11:12:30;97863.41;;;37.06;31.29
8416;BME280;4245;42.120;24.732;2023-08-06T11:14:59;97859.63;;;37.02;31.91
8416;BME280;4245;42.120;24.732;2023-08-06T11:17:27;97869.47;;;37.30;31.68
8416;BME280;4245;42.120;24.732;2023-08-06T11:19:54;97867.56;;;38.15;29.80
8416;BME280;4245;42.120;24.732;2023-08-06T11:22:21;97878.16;;;38.21;29.54
8416;BME280;4245;42.120;24.732;2023-08-06T11:24:48;97871.47;;;38.14;29.36
8416;BME280;4245;42.120;24.732;2023-08-06T11:27:16;97870.22;;;38.37;29.36
8416;BME280;4245;42.120;24.732;2023-08-06T11:29:44;97874.75;;;38.81;28.38
8416;BME280;4245;42.120;24.732;2023-08-06T11:32:12;97877.69;;;38.85;27.85
8416;BME280;4245;42.120;24.732;2023-08-06T11:34:40;97870.34;;;38.15;29.22
8416;BME280;4245;42.120;24.732;2023-08-06T11:37:07;97869.44;;;37.53;29.89
8416;BME280;4245;42.120;24.732;2023-08-06T11:39:34;97876.72;;;36.41;31.54
8416;BME280;4245;42.120;24.732;2023-08-06T11:42:03;97879.06;;;35.79;32.39
8416;BME280;4245;42.120;24.732;2023-08-06T11:44:30;97868.09;;;34.67;34.31
8416;BME280;4245;42.120;24.732;2023-08-06T11:46:59;97859.47;;;34.92;34.05
8416;BME280;4245;42.120;24.732;2023-08-06T11:49:42;97859.00;;;35.41;33.32
8416;BME280;4245;42.120;24.732;2023-08-06T11:52:13;97859.88;;;35.04;34.20
8416;BME280;4245;42.120;24.732;2023-08-06T11:54:40;97860.84;;;34.76;34.22
8416;BME280;4245;42.120;24.732;2023-08-06T11:57:07;97859.03;;;35.04;34.64
8416;BME280;4245;42.120;24.732;2023-08-06T11:59:34;97861.56;;;35.51;32.75
8416;BME280;4245;42.120;24.732;2023-08-06T12:02:02;97859.06;;;35.68;32.75
8416;BME280;4245;42.120;24.732;2023-08-06T12:04:31;97866.34;;;35.78;31.52
8416;BME280;4245;42.120;24.732;2023-08-06T12:07:06;97873.97;;;35.21;32.56
8416;BME280;4245;42.120;24.732;2023-08-06T12:09:34;97884.84;;;35.13;32.79
8416;BME280;4245;42.120;24.732;2023-08-06T12:12:02;97876.09;;;35.06;33.15
8416;BME280;4245;42.120;24.732;2023-08-06T12:14:29;97874.19;;;34.87;33.40
8416;BME280;4245;42.120;24.732;2023-08-06T12:16:56;97869.56;;;34.40;34.08
8416;BME280;4245;42.120;24.732;2023-08-06T12:19:23;97872.84;;;34.42;34.42
8416;BME280;4245;42.120;24.732;2023-08-06T12:21:51;97868.63;;;34.50;34.35
8416;BME280;4245;42.120;24.732;2023-08-06T12:24:19;97871.69;;;35.42;33.04
8416;BME280;4245;42.120;24.732;2023-08-06T12:26:46;97870.59;;;35.57;32.38
8416;BME280;4245;42.120;24.732;2023-08-06T12:29:13;97865.50;;;35.13;32.66
8416;BME280;4245;42.120;24.732;2023-08-06T12:31:40;97875.06;;;35.02;33.00
8416;BME280;4245;42.120;24.732;2023-08-06T12:34:07;97865.25;;;34.53;32.88
8416;BME280;4245;42.120;24.732;2023-08-06T12:36:34;97868.44;;;34.23;33.69
8416;BME280;4245;42.120;24.732;2023-08-06T12:39:01;97863.94;;;34.03;33.60
8416;BME280;4245;42.120;24.732;2023-08-06T12:41:29;97868.38;;;33.75;34.42
8416;BME280;4245;42.120;24.732;2023-08-06T12:43:56;97852.63;;;33.81;34.43
8416;BME280;4245;42.120;24.732;2023-08-06T12:46:23;97856.72;;;34.07;34.47
8416;BME280;4245;42.120;24.732;2023-08-06T12:48:49;97855.97;;;34.68;33.99
8416;BME280;4245;42.120;24.732;2023-08-06T12:51:16;97860.38;;;34.69;33.70
8416;BME280;4245;42.120;24.732;2023-08-06T12:53:43;97869.09;;;34.33;33.82
8416;BME280;4245;42.120;24.732;2023-08-06T12:56:10;97867.38;;;34.37;33.62
8416;BME280;4245;42.120;24.732;2023-08-06T12:58:39;97866.16;;;33.77;34.70
8416;BME280;4245;42.120;24.732;2023-08-06T13:01:07;97873.72;;;33.61;34.95
8416;BME280;4245;42.120;24.732;2023-08-06T13:03:34;97870.69;;;33.63;34.93
8416;BME280;4245;42.120;24.732;2023-08-06T13:06:01;97876.03;;;33.49;34.96
8416;BME280;4245;42.120;24.732;2023-08-06T13:08:28;97880.28;;;33.37;35.16
8416;BME280;4245;42.120;24.732;2023-08-06T13:10:55;97883.81;;;33.42;34.93